Time;durP1;ratioP1;P1;durP2;ratioP2;P2;SDS_P1;SDS_P2;PMS_P1;PMS_P2;Temp;Humidity;BMP_temperature;BMP_pressure;BME280_temperature;BME280_humidity;BME280_pressure;Samples;Min_cycle;Max_cycle;Signal;HPM_P1;HPM_P2
2022/09/19 00:01:41;;;;;;;0.50;0.50;;;;;;;10.98;68.56;98860.28;1802692;77;21118;-71
2022/09/19 00:04:17;;;;;;;1.15;0.60;;;;;;;10.99;68.49;98857.97;1828493;77;21035;-72
2022/09/19 00:06:44;;;;;;;2.10;0.45;;;;;;;11.00;68.41;98859.16;1829369;77;21027;-70
2022/09/19 00:09:15;;;;;;;2.02;0.40;;;;;;;11.03;68.31;98864.11;1810036;77;21704;-69
2022/09/19 00:11:45;;;;;;;0.85;0.40;;;;;;;11.06;68.28;98864.27;1851525;77;21323;-69
2022/09/19 00:14:15;;;;;;;1.45;0.50;;;;;;;11.08;68.25;98866.25;1831190;77;20951;-69
2022/09/19 00:16:44;;;;;;;1.22;0.40;;;;;;;11.12;68.09;98872.87;1841304;77;21450;-70
2022/09/19 00:19:15;;;;;;;0.60;0.40;;;;;;;11.14;68.01;98874.86;1831063;77;21100;-69
2022/09/19 00:21:46;;;;;;;2.60;0.60;;;;;;;11.17;68.02;98881.96;1817775;77;22030;-69
2022/09/19 00:27:04;;;;;;;0.70;0.53;;;;;;;11.22;67.90;98873.56;1830344;77;20940;-68
2022/09/19 00:29:33;;;;;;;1.00;0.60;;;;;;;11.23;67.85;98883.14;1825156;77;21622;-69
2022/09/19 00:32:02;;;;;;;0.80;0.70;;;;;;;11.26;67.81;98881.48;1833025;77;21047;-69
2022/09/19 00:34:30;;;;;;;0.50;0.50;;;;;;;11.28;67.88;98890.07;1817758;77;21767;-69
2022/09/19 00:36:57;;;;;;;1.32;0.50;;;;;;;11.29;67.85;98882.50;1847852;77;21016;-69
2022/09/19 00:39:24;;;;;;;2.25;0.57;;;;;;;11.33;67.85;98886.95;1824238;77;21118;-71
2022/09/19 00:41:51;;;;;;;0.78;0.60;;;;;;;11.34;67.84;98894.72;1819150;77;20992;-70
2022/09/19 00:44:30;;;;;;;0.60;0.50;;;;;;;11.37;67.71;98895.70;1793447;78;21526;-68
2022/09/19 00:47:14;;;;;;;0.68;0.50;;;;;;;11.40;67.73;98899.37;1827145;77;21932;-69
2022/09/19 00:49:46;;;;;;;0.80;0.70;;;;;;;11.43;67.63;98897.71;1829084;77;21443;-69
2022/09/19 00:52:20;;;;;;;0.78;0.62;;;;;;;11.43;67.48;98908.28;1835112;77;20999;-71
2022/09/19 00:54:48;;;;;;;1.65;0.60;;;;;;;11.47;67.54;98907.45;1830739;77;21034;-70
2022/09/19 00:57:16;;;;;;;0.53;0.53;;;;;;;11.48;67.44;98907.78;1832792;77;20944;-69
2022/09/19 00:59:47;;;;;;;2.55;0.60;;;;;;;11.51;67.36;98907.97;1835263;77;21812;-70
2022/09/19 01:02:15;;;;;;;1.17;0.60;;;;;;;11.55;67.44;98910.61;1791218;78;21353;-70
2022/09/19 01:04:43;;;;;;;1.02;0.60;;;;;;;11.57;67.46;98904.16;1795135;78;21114;-70
2022/09/19 01:07:37;;;;;;;3.02;0.78;;;;;;;11.58;67.35;98916.88;1804670;78;21038;-68
2022/09/19 01:10:18;;;;;;;1.42;0.60;;;;;;;11.60;67.29;98917.08;1803661;78;20978;-71
2022/09/19 01:13:09;;;;;;;1.37;0.85;;;;;;;11.61;67.32;98919.22;1768781;78;21823;-71
2022/09/19 01:16:04;;;;;;;1.02;0.78;;;;;;;11.60;67.28;98912.28;1806467;78;20896;-69
2022/09/19 01:18:47;;;;;;;1.27;0.70;;;;;;;11.61;67.33;98915.25;1751523;78;20993;-68
2022/09/19 01:21:47;;;;;;;1.27;0.60;;;;;;;11.61;67.36;98909.47;1803883;78;20986;-70
2022/09/19 01:24:37;;;;;;;0.72;0.70;;;;;;;11.62;67.37;98911.62;1800386;78;21493;-73
2022/09/19 01:27:40;;;;;;;0.88;0.70;;;;;;;11.62;67.46;98916.91;1794365;78;21840;-70
2022/09/19 01:30:10;;;;;;;0.80;0.62;;;;;;;11.63;67.41;98915.91;1787740;78;21077;-69
2022/09/19 01:32:51;;;;;;;1.22;0.70;;;;;;;11.61;67.37;98907.32;1800377;78;21002;-69
2022/09/19 01:35:23;;;;;;;0.75;0.70;;;;;;;11.61;67.46;98908.64;1794677;78;21010;-70
2022/09/19 01:38:03;;;;;;;1.65;0.70;;;;;;;11.61;67.38;98908.14;1813426;78;21073;-68
2022/09/19 01:40:28;;;;;;;1.42;0.80;;;;;;;11.62;67.41;98926.98;1798500;78;21787;-69
2022/09/19 01:42:57;;;;;;;0.88;0.70;;;;;;;11.63;67.32;98923.34;1811194;78;21069;-69
2022/09/19 01:45:36;;;;;;;0.75;0.60;;;;;;;11.64;67.31;98922.85;1804180;77;21034;-68
2022/09/19 01:48:20;;;;;;;0.88;0.70;;;;;;;11.63;67.31;98922.52;1807170;78;21294;-70
2022/09/19 01:51:02;;;;;;;1.40;0.72;;;;;;;11.65;67.33;98927.14;1806541;78;21085;-69
2022/09/19 01:53:56;;;;;;;0.95;0.70;;;;;;;11.65;67.30;98925.33;1792994;78;21844;-69
2022/09/19 01:57:03;;;;;;;1.15;0.78;;;;;;;11.67;67.18;98934.41;1793881;78;21530;-71
2022/09/19 02:00:04;;;;;;;2.50;0.90;;;;;;;11.69;66.90;98941.22;1805223;77;21084;-68
2022/09/19 02:02:56;;;;;;;0.98;0.80;;;;;;;11.71;66.93;98939.73;1793276;77;20944;-69
2022/09/19 02:05:36;;;;;;;1.80;0.90;;;;;;;11.70;66.90;98945.52;1828195;77;21039;-69
2022/09/19 02:08:15;;;;;;;2.27;0.93;;;;;;;11.71;66.88;98945.02;1823445;77;21864;-71
2022/09/19 02:10:46;;;;;;;1.85;0.80;;;;;;;11.73;66.88;98953.61;1833314;77;20924;-69
2022/09/19 02:13:21;;;;;;;1.25;0.90;;;;;;;11.73;66.89;98950.47;1807128;77;20928;-69
2022/09/19 02:15:54;;;;;;;1.35;1.00;;;;;;;11.74;66.72;98964.02;1811844;77;21050;-68
2022/09/19 02:18:49;;;;;;;1.87;1.10;;;;;;;11.76;66.67;98955.91;1830452;77;21035;-69
2022/09/19 02:21:21;;;;;;;1.75;1.10;;;;;;;11.77;66.58;98961.53;1802035;77;22027;-69
2022/09/19 02:23:50;;;;;;;1.32;0.90;;;;;;;11.79;66.53;98966.69;1833171;77;21494;-72
2022/09/19 02:26:20;;;;;;;2.17;1.05;;;;;;;11.78;66.38;98973.80;1819871;77;21005;-68
2022/09/19 02:28:54;;;;;;;2.02;1.07;;;;;;;11.80;66.39;98967.88;1807627;77;21046;-71
2022/09/19 02:31:26;;;;;;;2.17;1.00;;;;;;;11.82;66.28;98966.38;1805281;77;20941;-69
2022/09/19 02:33:58;;;;;;;2.58;1.10;;;;;;;11.84;66.37;98975.80;1832979;77;21752;-69
2022/09/19 02:36:54;;;;;;;2.45;1.17;;;;;;;11.85;66.26;98973.98;1804527;77;21050;-70
2022/09/19 02:39:27;;;;;;;1.25;1.15;;;;;;;11.85;66.21;98976.62;1803567;77;21320;-69
2022/09/19 02:42:09;;;;;;;1.65;1.10;;;;;;;11.83;66.11;98979.44;1823743;77;21047;-68
2022/09/19 02:45:02;;;;;;;1.62;1.30;;;;;;;11.84;66.15;98996.14;1835035;77;20940;-70
2022/09/19 02:47:53;;;;;;;3.47;1.40;;;;;;;11.84;66.10;98989.03;1828384;77;22805;-70
2022/09/19 02:50:27;;;;;;;2.47;1.50;;;;;;;11.84;65.98;98990.84;1837547;77;20984;-69
2022/09/19 02:52:54;;;;;;;1.40;1.20;;;;;;;11.84;65.87;98996.97;1825449;77;20987;-69
2022/09/19 02:55:39;;;;;;;2.20;1.27;;;;;;;11.85;65.85;98988.53;1796775;78;20915;-69
2022/09/19 02:58:05;;;;;;;;;;;;;;;11.84;65.83;98998.29;1824140;77;21094;-69
2022/09/19 03:00:33;;;;;;;2.77;1.45;;;;;;;11.86;65.83;99003.41;1832805;77;21800;-71
2022/09/19 03:04:11;;;;;;;1.92;1.30;;;;;;;11.83;65.66;99016.48;1758288;80;21609;-69
2022/09/19 03:05:38;;;;;;;1.75;1.32;;;;;;;11.83;65.56;99011.69;1787705;78;21086;-70
2022/09/19 03:08:08;;;;;;;2.65;1.10;;;;;;;11.86;65.65;99010.02;1793539;78;21000;-70
2022/09/19 03:10:38;;;;;;;2.27;1.40;;;;;;;11.87;65.67;99008.56;1789728;78;20948;-69
2022/09/19 03:13:13;;;;;;;1.82;1.30;;;;;;;11.87;65.58;99021.80;1792631;78;21966;-72
2022/09/19 03:15:51;;;;;;;2.65;1.40;;;;;;;11.88;65.57;99022.12;1785252;78;20981;-70
2022/09/19 03:18:19;;;;;;;3.52;1.40;;;;;;;11.89;65.58;99017.16;1788280;78;21000;-70
2022/09/19 03:20:51;;;;;;;2.35;1.30;;;;;;;11.89;65.55;99029.56;1785396;78;21099;-70
2022/09/19 03:23:22;;;;;;;2.55;1.40;;;;;;;11.86;65.52;99032.02;1786256;78;21044;-71
2022/09/19 03:25:49;;;;;;;1.98;1.40;;;;;;;11.87;65.56;99038.98;1794151;78;21797;-70
2022/09/19 03:28:19;;;;;;;3.12;1.45;;;;;;;11.87;65.70;99036.34;1785981;80;20942;-70
2022/09/19 03:30:44;;;;;;;5.62;1.70;;;;;;;11.86;65.66;99054.50;1787068;78;20949;-70
2022/09/19 03:33:15;;;;;;;1.77;1.50;;;;;;;11.85;65.66;99052.85;1786533;80;20981;-69
2022/09/19 03:35:39;;;;;;;2.42;1.40;;;;;;;11.83;65.76;99056.16;1791254;78;21051;-69
2022/09/19 03:40:41;;;;;;;2.67;1.30;;;;;;;11.82;65.78;99060.30;1763020;80;20988;-70
2022/09/19 03:43:08;;;;;;;2.27;1.50;;;;;;;11.82;65.67;99062.94;1719369;80;21024;-70
2022/09/19 03:45:36;;;;;;;2.77;1.40;;;;;;;11.82;65.80;99066.41;1785809;78;21406;-70
2022/09/19 03:48:04;;;;;;;2.75;1.30;;;;;;;11.82;65.54;99064.27;1786805;78;20941;-70
2022/09/19 03:50:31;;;;;;;1.77;1.50;;;;;;;11.83;65.58;99061.45;1787953;78;21903;-70
2022/09/19 03:53:02;;;;;;;2.60;1.40;;;;;;;11.85;65.58;99066.08;1793334;78;21035;-70
2022/09/19 03:55:29;;;;;;;1.82;1.50;;;;;;;11.86;65.53;99065.58;1804187;78;20992;-69
2022/09/19 03:57:56;;;;;;;3.45;1.40;;;;;;;11.86;65.52;99073.52;1795875;78;21129;-69
2022/09/19 04:00:24;;;;;;;3.02;1.30;;;;;;;11.87;65.59;99073.85;1791819;78;21152;-73
2022/09/19 04:02:53;;;;;;;2.15;1.47;;;;;;;11.86;65.53;99082.28;1810238;78;21937;-70
2022/09/19 04:05:20;;;;;;;2.27;1.70;;;;;;;11.87;65.62;99083.11;1824841;76;21027;-69
2022/09/19 04:08:04;;;;;;;3.02;1.70;;;;;;;11.85;65.74;99080.63;1816082;77;21090;-69
2022/09/19 04:10:34;;;;;;;2.98;1.70;;;;;;;11.82;65.77;99088.08;1809056;77;21037;-69
2022/09/19 04:13:03;;;;;;;2.58;1.70;;;;;;;11.76;65.88;99102.23;1832927;76;20984;-69
2022/09/19 04:15:31;;;;;;;2.35;1.70;;;;;;;11.72;66.04;99105.38;1798032;78;21916;-69
2022/09/19 04:17:59;;;;;;;3.83;1.90;;;;;;;11.70;66.17;99117.94;1787845;78;21000;-69
2022/09/19 04:20:29;;;;;;;2.67;1.80;;;;;;;11.64;66.32;99113.27;1780079;79;22899;-70
2022/09/19 04:23:16;;;;;;;3.50;1.90;;;;;;;11.61;66.46;99118.89;1758410;79;21004;-68
2022/09/19 04:26:04;;;;;;;2.77;1.80;;;;;;;11.59;66.52;99131.45;1747676;80;21070;-71
2022/09/19 04:28:31;;;;;;;2.00;1.60;;;;;;;11.60;66.72;99131.28;1759105;79;21816;-70
2022/09/19 04:30:58;;;;;;;2.45;1.70;;;;;;;11.63;66.75;99128.31;1743590;81;21032;-71
2022/09/19 04:33:26;;;;;;;2.62;1.57;;;;;;;11.68;66.80;99138.44;1758649;79;21029;-70
2022/09/19 04:35:57;;;;;;;2.33;1.70;;;;;;;11.72;66.73;99149.02;1757645;80;21062;-71
2022/09/19 04:38:23;;;;;;;2.08;1.60;;;;;;;11.76;66.52;99152.98;1752242;79;21114;-71
2022/09/19 04:40:56;;;;;;;3.05;1.90;;;;;;;11.80;66.59;99145.12;1762886;79;21963;-77
2022/09/19 04:43:24;;;;;;;3.55;1.90;;;;;;;11.82;66.42;99148.42;1767897;79;21949;-74
2022/09/19 04:45:59;;;;;;;2.62;1.60;;;;;;;11.86;66.51;99155.05;1736142;79;21187;-72
2022/09/19 04:48:28;;;;;;;3.37;1.55;;;;;;;11.89;66.30;99156.06;1758278;81;22285;-72
2022/09/19 04:50:57;;;;;;;3.15;1.80;;;;;;;11.92;66.11;99153.09;1741154;81;21091;-72
2022/09/19 04:53:27;;;;;;;3.60;1.70;;;;;;;11.97;66.14;99161.39;1752955;80;22289;-70
2022/09/19 04:55:55;;;;;;;2.95;1.82;;;;;;;12.02;65.99;99162.22;1757698;80;21470;-70
2022/09/19 04:58:23;;;;;;;2.75;1.67;;;;;;;12.05;65.67;99169.83;1768355;79;21078;-71
2022/09/19 05:00:53;;;;;;;4.40;2.08;;;;;;;12.06;65.45;99174.62;1753332;80;21498;-70
2022/09/19 05:03:25;;;;;;;2.20;1.50;;;;;;;12.07;65.33;99177.64;1757519;79;21478;-69
2022/09/19 05:05:53;;;;;;;3.55;1.90;;;;;;;12.06;65.22;99183.39;1764371;79;21843;-70
2022/09/19 05:08:27;;;;;;;3.90;1.60;;;;;;;12.05;65.19;99184.39;1768009;79;22131;-72
2022/09/19 05:10:59;;;;;;;2.60;1.60;;;;;;;12.07;65.37;99190.87;1748882;79;21035;-71
2022/09/19 05:13:30;;;;;;;3.77;1.80;;;;;;;12.11;65.27;99197.48;1722796;81;21097;-70
2022/09/19 05:16:01;;;;;;;2.20;1.50;;;;;;;12.15;65.13;99206.26;1744576;80;21113;-70
2022/09/19 05:18:49;;;;;;;3.15;1.60;;;;;;;12.18;64.96;99206.45;1732345;79;21039;-72
2022/09/19 05:21:18;;;;;;;3.12;1.60;;;;;;;12.22;65.02;99213.89;1756343;80;21071;-69
2022/09/19 05:23:45;;;;;;;3.05;1.40;;;;;;;12.25;64.92;99214.89;1777465;79;21394;-69
2022/09/19 05:26:16;;;;;;;3.33;1.50;;;;;;;12.30;64.91;99226.34;1768289;79;20960;-69
2022/09/19 05:28:47;;;;;;;3.22;1.67;;;;;;;12.33;64.86;99224.69;1765152;79;20989;-70
2022/09/19 05:31:18;;;;;;;3.70;1.70;;;;;;;12.36;64.73;99233.66;1782887;79;21988;-70
2022/09/19 05:33:47;;;;;;;5.42;1.55;;;;;;;12.39;64.54;99248.38;1736580;81;21147;-69
2022/09/19 05:36:17;;;;;;;2.72;1.72;;;;;;;12.37;64.24;99250.37;1777072;79;21016;-70
2022/09/19 05:39:03;;;;;;;4.83;1.62;;;;;;;12.38;64.43;99254.17;1773801;79;20952;-71
2022/09/19 05:41:48;;;;;;;2.37;1.50;;;;;;;12.38;64.36;99256.82;1771580;79;21529;-73
2022/09/19 05:44:21;;;;;;;3.47;1.90;;;;;;;12.37;64.27;99256.98;1762260;79;23683;-73
2022/09/19 05:46:51;;;;;;;3.87;2.02;;;;;;;12.36;64.41;99260.13;1757933;81;21050;-71
2022/09/19 05:49:18;;;;;;;2.83;1.70;;;;;;;12.38;64.40;99263.94;1772704;79;21055;-69
2022/09/19 05:51:44;;;;;;;5.00;2.00;;;;;;;12.36;64.25;99270.72;1765639;81;20996;-73
2022/09/19 05:54:13;;;;;;;2.67;1.60;;;;;;;12.37;64.44;99279.00;1765727;79;20984;-73
2022/09/19 05:57:00;;;;;;;1.90;1.40;;;;;;;12.37;64.35;99282.97;1752052;81;22051;-72
2022/09/19 05:59:27;;;;;;;2.22;1.75;;;;;;;12.36;64.38;99283.96;1779761;80;20929;-73
2022/09/19 06:01:54;;;;;;;2.83;1.60;;;;;;;12.37;64.42;99280.32;1757578;80;21516;-73
2022/09/19 06:04:25;;;;;;;2.70;1.65;;;;;;;12.40;64.47;99280.48;1751164;81;21081;-78
2022/09/19 06:06:52;;;;;;;3.60;1.55;;;;;;;12.44;64.54;99290.59;1753037;81;21014;-72
2022/09/19 06:09:20;;;;;;;2.83;1.62;;;;;;;12.53;64.76;99288.80;1740587;81;21949;-68
2022/09/19 06:11:49;;;;;;;2.35;1.70;;;;;;;12.59;64.62;99298.27;1751991;80;21076;-69
2022/09/19 06:14:22;;;;;;;2.27;1.52;;;;;;;12.65;64.21;99300.78;1730470;82;20956;-68
2022/09/19 06:16:47;;;;;;;2.42;1.37;;;;;;;12.67;64.39;99296.64;1736985;79;20972;-71
2022/09/19 06:19:32;;;;;;;2.37;1.40;;;;;;;12.69;63.78;99310.55;1731501;81;21209;-71
2022/09/19 06:22:10;;;;;;;3.75;1.62;;;;;;;12.67;63.89;99318.66;1715550;82;22000;-70
2022/09/19 06:24:38;;;;;;;2.62;1.60;;;;;;;12.66;63.94;99323.63;1735928;81;21051;-68
2022/09/19 06:27:07;;;;;;;2.15;1.30;;;;;;;12.65;63.93;99323.80;1733120;81;20933;-71
2022/09/19 06:29:36;;;;;;;3.17;1.60;;;;;;;12.65;63.68;99329.09;1717169;82;21047;-73
2022/09/19 06:32:18;;;;;;;3.67;1.40;;;;;;;12.64;64.03;99345.95;1735977;82;21502;-72
2022/09/19 06:34:46;;;;;;;2.22;1.35;;;;;;;12.62;63.94;99347.44;1736860;81;22560;-72
2022/09/19 06:37:14;;;;;;;2.67;1.60;;;;;;;12.57;63.83;99347.94;1715902;81;20968;-71
2022/09/19 06:39:47;;;;;;;3.30;1.35;;;;;;;12.56;64.01;99356.05;1720880;82;21027;-72
2022/09/19 06:42:21;;;;;;;2.50;1.50;;;;;;;12.53;64.02;99353.20;1704554;81;21008;-71
2022/09/19 06:44:53;;;;;;;1.50;1.35;;;;;;;12.52;64.28;99354.19;1750059;81;21028;-71
2022/09/19 06:47:37;;;;;;;1.67;1.40;;;;;;;12.53;64.12;99368.26;1714594;82;21841;-71
2022/09/19 06:50:21;;;;;;;3.08;1.50;;;;;;;12.50;64.10;99372.06;1718406;81;21038;-71
2022/09/19 06:52:59;;;;;;;2.87;1.60;;;;;;;12.48;64.35;99376.70;1730924;82;21110;-70
2022/09/19 06:55:27;;;;;;;2.35;1.45;;;;;;;12.45;64.34;99369.08;1718981;81;21386;-72
2022/09/19 06:58:00;;;;;;;3.00;1.45;;;;;;;12.47;64.48;99382.16;1732082;81;20924;-70
2022/09/19 07:00:31;;;;;;;2.80;1.67;;;;;;;12.52;64.60;99389.12;1717381;81;21835;-72
2022/09/19 07:03:13;;;;;;;3.72;1.60;;;;;;;12.55;64.34;99393.63;1725542;81;21007;-70
2022/09/19 07:05:42;;;;;;;3.27;1.62;;;;;;;12.55;64.11;99392.30;1755982;79;21129;-69
2022/09/19 07:08:24;;;;;;;2.42;1.60;;;;;;;12.58;64.11;99388.50;1777484;80;21047;-69
2022/09/19 07:10:51;;;;;;;3.02;1.80;;;;;;;12.58;64.07;99401.24;1773552;79;21121;-71
2022/09/19 07:13:17;;;;;;;2.27;1.55;;;;;;;12.56;64.02;99399.25;1782621;80;21775;-69
2022/09/19 07:15:46;;;;;;;1.50;1.30;;;;;;;12.59;64.17;99408.20;1782564;79;22082;-73
2022/09/19 07:18:14;;;;;;;3.20;1.65;;;;;;;12.64;64.25;99413.01;1764749;79;21528;-70
2022/09/19 07:20:41;;;;;;;2.67;1.25;;;;;;;12.69;64.21;99421.82;1763174;79;21105;-71
2022/09/19 07:23:16;;;;;;;2.22;1.40;;;;;;;12.74;63.96;99419.05;1762896;79;21467;-71
2022/09/19 07:25:45;;;;;;;2.40;1.50;;;;;;;12.77;63.73;99424.52;1763762;79;21756;-70
2022/09/19 07:28:16;;;;;;;2.37;1.30;;;;;;;12.79;63.72;99426.00;1763332;79;21016;-72
2022/09/19 07:30:45;;;;;;;1.60;1.25;;;;;;;12.81;63.31;99438.59;1765513;79;20948;-70
2022/09/19 07:33:13;;;;;;;3.02;1.50;;;;;;;12.80;63.13;99427.66;1759351;79;21040;-78
2022/09/19 07:35:41;;;;;;;2.27;1.30;;;;;;;12.83;63.07;99435.78;1756745;79;21083;-74
2022/09/19 07:38:14;;;;;;;2.20;1.40;;;;;;;12.84;62.93;99432.17;1764664;79;21675;-70
2022/09/19 07:40:52;;;;;;;1.90;1.30;;;;;;;12.88;62.58;99437.48;1763010;79;21058;-70
2022/09/19 07:43:26;;;;;;;2.90;1.27;;;;;;;12.89;62.36;99435.16;1765888;81;20991;-71
2022/09/19 07:46:12;;;;;;;2.37;1.30;;;;;;;12.95;62.49;99439.00;1754266;80;21066;-71
2022/09/19 07:48:57;;;;;;;2.62;1.30;;;;;;;13.05;62.07;99447.16;1766375;81;20971;-70
2022/09/19 07:51:28;;;;;;;1.70;1.20;;;;;;;13.12;61.93;99449.52;1746360;81;22472;-70
2022/09/19 07:53:56;;;;;;;1.57;1.20;;;;;;;13.23;61.92;99448.91;1757644;79;21055;-69
2022/09/19 07:56:23;;;;;;;1.45;1.10;;;;;;;13.36;61.79;99463.86;1764448;81;21062;-69
2022/09/19 07:58:52;;;;;;;2.80;1.32;;;;;;;13.48;60.89;99449.78;1766237;81;21545;-70
2022/09/19 08:01:19;;;;;;;4.30;1.40;;;;;;;13.57;60.92;99452.29;1765555;80;21019;-71
2022/09/19 08:04:06;;;;;;;1.60;1.10;;;;;;;13.65;60.07;99448.83;1765723;81;21854;-70
2022/09/19 08:06:36;;;;;;;2.77;1.20;;;;;;;13.73;59.73;99454.97;1764636;81;20988;-69
2022/09/19 08:09:04;;;;;;;1.70;1.30;;;;;;;13.81;59.81;99462.63;1765000;80;21015;-69
2022/09/19 08:11:49;;;;;;;2.15;1.20;;;;;;;13.89;59.43;99459.44;1759685;81;21051;-70
2022/09/19 08:14:16;;;;;;;3.37;1.15;;;;;;;13.97;59.01;99461.28;1764699;81;21075;-69
2022/09/19 08:16:43;;;;;;;2.25;1.27;;;;;;;14.00;58.79;99462.30;1723903;80;21835;-69
2022/09/19 08:19:10;;;;;;;2.12;1.10;;;;;;;14.01;58.33;99465.28;1736144;81;20977;-68
2022/09/19 08:21:38;;;;;;;1.80;1.05;;;;;;;13.97;58.45;99466.09;1735994;82;21660;-68
2022/09/19 08:24:06;;;;;;;1.65;1.15;;;;;;;13.99;58.68;99481.84;1735878;82;20977;-74
2022/09/19 08:26:35;;;;;;;1.00;0.90;;;;;;;13.98;57.95;99465.59;1747961;79;20987;-68
2022/09/19 08:29:02;;;;;;;1.62;1.07;;;;;;;13.97;58.15;99477.20;1766315;79;22478;-71
2022/09/19 08:31:30;;;;;;;1.57;1.02;;;;;;;13.99;57.53;99475.21;1766364;81;21000;-72
2022/09/19 08:33:57;;;;;;;2.75;0.98;;;;;;;13.98;57.14;99476.21;1766414;81;21004;-70
2022/09/19 08:36:23;;;;;;;3.15;1.30;;;;;;;13.99;57.33;99472.09;1736294;81;21043;-70
2022/09/19 08:38:51;;;;;;;2.95;1.00;;;;;;;14.04;56.60;99490.16;1766217;81;21000;-70
2022/09/19 08:41:57;;;;;;;2.20;1.30;;;;;;;14.04;56.72;99471.58;1766240;81;21868;-74
2022/09/19 08:44:48;;;;;;;1.67;1.07;;;;;;;14.08;56.38;99489.32;1790625;79;21470;-69
2022/09/19 08:47:20;;;;;;;1.85;1.10;;;;;;;14.05;56.30;99483.86;1735690;82;20968;-69
2022/09/19 08:50:08;;;;;;;3.77;1.00;;;;;;;14.07;56.38;99496.96;1736780;81;21106;-69
2022/09/19 08:52:55;;;;;;;2.50;1.07;;;;;;;14.06;56.20;99504.59;1735250;79;21020;-68
2022/09/19 08:55:29;;;;;;;3.37;1.12;;;;;;;14.01;56.17;99505.94;1734602;81;21733;-69
2022/09/19 08:58:02;;;;;;;6.08;1.37;;;;;;;14.00;56.29;99505.61;1715766;82;21060;-72
2022/09/19 09:00:41;;;;;;;3.22;0.88;;;;;;;14.01;56.42;99509.09;1755189;79;21029;-71
2022/09/19 09:03:16;;;;;;;1.20;1.10;;;;;;;14.04;56.71;99513.56;1758997;81;21094;-71
2022/09/19 09:06:18;;;;;;;1.70;1.20;;;;;;;14.14;56.31;99512.57;1758795;80;20960;-72
2022/09/19 09:09:13;;;;;;;10.30;2.10;;;;;;;14.19;55.97;99496.98;1759680;81;22484;-71
2022/09/19 09:11:50;;;;;;;1.30;1.00;;;;;;;14.29;55.98;99497.14;1759452;80;21047;-70
2022/09/19 09:14:58;;;;;;;2.15;1.00;;;;;;;14.44;55.66;99495.95;1757133;80;20953;-71
2022/09/19 09:17:51;;;;;;;5.80;1.52;;;;;;;14.64;55.60;99508.91;1755684;81;20973;-73
2022/09/19 09:21:03;;;;;;;3.40;1.00;;;;;;;14.84;55.41;99508.36;1758184;81;21016;-69
2022/09/19 09:23:42;;;;;;;2.10;1.20;;;;;;;15.03;55.47;99516.95;1758539;81;21891;-69
2022/09/19 09:26:21;;;;;;;1.37;1.07;;;;;;;15.17;54.58;99526.89;1757522;81;21012;-76
2022/09/19 09:29:11;;;;;;;1.92;1.00;;;;;;;15.16;53.68;99523.91;1734097;81;21064;-73
2022/09/19 09:31:48;;;;;;;3.17;1.25;;;;;;;15.16;53.90;99530.55;1752477;80;21006;-74
2022/09/19 09:34:29;;;;;;;1.42;1.02;;;;;;;15.18;53.36;99543.18;1753780;80;21716;-71
2022/09/19 09:37:07;;;;;;;1.75;1.10;;;;;;;15.06;53.49;99538.73;1759904;81;21932;-70
2022/09/19 09:40:09;;;;;;;2.50;1.00;;;;;;;14.97;53.72;99547.73;1750643;81;20935;-71
2022/09/19 09:42:57;;;;;;;1.98;1.10;;;;;;;14.90;53.91;99554.72;1754430;80;21012;-73
2022/09/19 09:45:38;;;;;;;4.60;1.30;;;;;;;14.81;53.31;99551.75;1753560;80;20948;-72
2022/09/19 09:48:26;;;;;;;1.60;1.30;;;;;;;14.74;54.08;99542.78;1750207;81;20937;-70
2022/09/19 09:51:19;;;;;;;1.90;1.12;;;;;;;14.76;54.41;99556.23;1756416;80;21940;-72
2022/09/19 09:53:57;;;;;;;3.08;1.72;;;;;;;14.80;54.60;99546.94;1757483;80;20957;-72
2022/09/19 09:56:46;;;;;;;1.02;0.93;;;;;;;14.88;54.35;99547.42;1755977;81;21027;-72
2022/09/19 10:05:39;;;;;;;1.65;1.12;;;;;;;15.02;53.81;99557.34;1738689;82;22495;-70
2022/09/19 10:08:22;;;;;;;1.95;1.35;;;;;;;15.07;53.50;99560.84;1733051;79;21454;-71
2022/09/19 10:10:53;;;;;;;2.12;1.17;;;;;;;15.16;53.93;99568.63;1742275;81;21095;-70
2022/09/19 10:13:25;;;;;;;3.22;1.20;;;;;;;15.33;53.65;99560.56;1724931;83;21048;-70
2022/09/19 10:15:55;;;;;;;1.37;1.05;;;;;;;15.44;52.88;99569.03;1717024;81;21027;-71
2022/09/19 10:18:25;;;;;;;1.50;0.98;;;;;;;15.48;52.70;99559.36;1704802;84;21808;-72
2022/09/19 10:20:57;;;;;;;1.50;1.05;;;;;;;15.43;52.54;99554.54;1704240;83;20960;-72
2022/09/19 10:23:32;;;;;;;1.57;1.10;;;;;;;15.42;52.79;99561.70;1705225;81;21415;-71
2022/09/19 10:26:04;;;;;;;2.10;1.27;;;;;;;15.46;52.60;99568.85;1773862;79;20980;-70
2022/09/19 10:28:52;;;;;;;3.20;1.20;;;;;;;15.57;53.03;99558.32;1802946;79;21411;-72
2022/09/19 10:31:39;;;;;;;2.12;1.27;;;;;;;15.81;52.36;99567.53;1728675;81;21415;-70
2022/09/19 10:34:36;;;;;;;1.72;1.12;;;;;;;16.16;51.77;99567.98;1705818;83;21061;-71
2022/09/19 10:37:02;;;;;;;5.40;1.32;;;;;;;16.51;51.16;99573.23;1725554;83;20984;-74
2022/09/19 10:39:29;;;;;;;2.15;1.22;;;;;;;16.73;50.01;99579.56;1752812;81;21000;-75
2022/09/19 10:41:56;;;;;;;8.80;5.55;;;;;;;16.60;49.05;99577.48;1755969;80;20992;-74
2022/09/19 10:44:24;;;;;;;5.92;1.80;;;;;;;16.46;49.29;99579.59;1771025;80;21560;-72
2022/09/19 10:47:03;;;;;;;3.70;2.08;;;;;;;16.27;49.18;99599.55;1753775;79;21056;-75
2022/09/19 10:49:46;;;;;;;4.00;1.77;;;;;;;16.14;49.70;99605.47;1782532;80;21058;-73
2022/09/19 10:52:24;;;;;;;3.08;1.60;;;;;;;16.05;50.32;99599.86;1783278;80;20980;-72
2022/09/19 10:54:51;;;;;;;5.85;3.00;;;;;;;16.02;50.67;99605.05;1783715;80;21483;-70
2022/09/19 10:57:44;;;;;;;5.95;1.62;;;;;;;16.02;50.72;99610.38;1762734;80;22001;-73
2022/09/19 11:00:31;;;;;;;3.02;1.98;;;;;;;16.08;51.14;99602.67;1769421;79;21003;-71
2022/09/19 11:03:06;;;;;;;2.35;1.50;;;;;;;16.38;51.60;99594.30;1739009;82;21574;-71
2022/09/19 11:05:36;;;;;;;1.82;1.00;;;;;;;16.79;50.49;99598.81;1752580;82;21000;-73
2022/09/19 11:08:05;;;;;;;2.20;1.50;;;;;;;16.96;49.04;99605.66;1752592;82;20957;-73
2022/09/19 11:10:41;;;;;;;3.27;2.00;;;;;;;16.96;48.60;99615.50;1712057;79;21949;-72
2022/09/19 11:13:20;;;;;;;4.53;3.85;;;;;;;16.93;48.79;99611.37;1762650;80;21076;-72
2022/09/19 11:16:17;;;;;;;2.92;2.58;;;;;;;16.99;48.92;99619.99;1779894;79;21106;-75
2022/09/19 11:19:15;;;;;;;3.40;1.40;;;;;;;17.07;48.85;99615.88;1701413;81;21005;-70
2022/09/19 11:22:28;;;;;;;1.17;1.00;;;;;;;17.18;49.08;99606.63;1757658;80;21043;-75
2022/09/19 11:25:13;;;;;;;2.00;0.90;;;;;;;17.33;48.53;99618.13;1759230;80;21792;-72
2022/09/19 11:28:08;;;;;;;2.40;1.15;;;;;;;17.28;47.29;99621.87;1726109;83;21280;-73
2022/09/19 11:30:40;;;;;;;4.65;1.20;;;;;;;17.12;47.19;99615.36;1742349;81;21481;-71
2022/09/19 11:33:34;;;;;;;2.25;1.57;;;;;;;17.05;47.90;99621.09;1751022;80;21091;-74
2022/09/19 11:36:44;;;;;;;4.62;1.20;;;;;;;17.05;47.61;99617.09;1751086;80;21032;-75
2022/09/19 11:39:41;;;;;;;1.77;0.80;;;;;;;16.95;47.20;99620.52;1726666;82;22295;-73
2022/09/19 11:42:41;;;;;;;1.60;0.82;;;;;;;16.87;47.12;99621.42;1764809;81;21031;-69
2022/09/19 11:45:13;;;;;;;2.25;0.90;;;;;;;16.80;47.32;99624.50;1764430;81;21035;-70
2022/09/19 11:48:20;;;;;;;3.02;0.98;;;;;;;16.80;47.41;99628.00;1730389;81;21078;-71
2022/09/19 11:51:08;;;;;;;2.77;0.90;;;;;;;16.82;46.61;99631.81;1759702;79;21044;-73
2022/09/19 11:54:15;;;;;;;1.45;0.82;;;;;;;16.80;47.39;99634.67;1723505;81;21816;-71
2022/09/19 11:57:07;;;;;;;2.83;1.20;;;;;;;16.80;46.95;99633.33;1764933;79;21053;-74
2022/09/19 12:00:10;;;;;;;1.33;0.80;;;;;;;16.85;47.48;99617.60;1753689;81;21072;-73
2022/09/19 12:03:00;;;;;;;2.02;0.90;;;;;;;17.02;46.92;99619.63;1737052;81;21086;-77
2022/09/19 12:06:01;;;;;;;1.30;0.83;;;;;;;17.36;47.29;99627.09;1728983;82;21106;-72
2022/09/19 12:08:49;;;;;;;1.70;0.80;;;;;;;17.65;45.31;99624.92;1750697;81;21948;-72
2022/09/19 12:11:21;;;;;;;1.20;0.75;;;;;;;17.79;44.83;99623.80;1727972;83;21023;-71
2022/09/19 12:13:53;;;;;;;1.17;0.90;;;;;;;17.85;44.39;99617.19;1737321;80;21208;-70
2022/09/19 12:16:38;;;;;;;1.47;0.90;;;;;;;17.89;45.07;99625.16;1761612;80;21016;-72
2022/09/19 12:19:18;;;;;;;2.10;1.30;;;;;;;17.88;44.38;99634.70;1746657;80;20945;-70
2022/09/19 12:21:55;;;;;;;2.05;1.40;;;;;;;17.73;44.26;99639.55;1747060;80;21933;-71
2022/09/19 12:27:20;;;;;;;1.90;1.17;;;;;;;17.45;45.13;99645.19;1757398;81;21038;-69
2022/09/19 12:30:10;;;;;;;2.52;1.07;;;;;;;17.30;45.35;99628.35;1756636;80;21051;-70
2022/09/19 12:32:59;;;;;;;2.33;1.10;;;;;;;17.25;45.56;99638.22;1753126;81;21744;-70